Terminal Aerodrome Forecast
Issued by NWS Tulsa, OK

Current Version | Previous Version | Text Only | Print | Product List | Glossary On
Versions: 1 2 3 4 5 6 7 8 9 10 11 12
000
FTUS44 KTSA 292300
TAFFSM
TAF
KFSM 292320Z 3000/3024 31007KT P6SM OVC070
     FM301200 09003KT P6SM BKN250
     FM301400 03004KT P6SM VCSH BKN110
      TEMPO 3014/3018 5SM -RA OVC070
     FM301800 06005KT 4SM -RA BR BKN025=

USA.gov is the U.S. government's official web portal to all federal, state and local government web resources and services.